Lake, Mississippi
Current Conditions -  °F | °C
As of 8:58 AM on Saturday 20 Dec 2014 (Local Time) from KMEI Reporting Station
Overcast Overcast  
Wind Chill: 38°   Ceiling: 2200
Heat Index: 43°   Visibility: 9mi
Dew Point: 39°   Wind: 8mph
Humidity: 86%   Direction: 30°NNE
Pressure: 30.23"   Gusts: NA
Location:  32.34°N, 89.33°W
Report Text: KMEI 201458Z 03007KT 9SM OVC022 06/04 A3023 RMK AO2 SLP237 T00610039 51009
Loading
Personal Weather Stations






























Interactive Weather Map New forecast layout! Learn more

10-Day Weather Forecast

Advertisements
Track Severe Weather on mobile